Time;durP1;ratioP1;P1;durP2;ratioP2;P2;SDS_P1;SDS_P2;PMS_P1;PMS_P2;Temp;Humidity;BMP_temperature;BMP_pressure;BME280_temperature;BME280_humidity;BME280_pressure;Samples;Min_cycle;Max_cycle;Signal;HPM_P1;HPM_P2
2024/01/07 00:01:34;;;;;;;10.43;7.97;;;6.60;63.90;8.40;101566.00;;;;5031450;28;20219;-74
2024/01/07 00:04:02;;;;;;;9.30;7.30;;;6.50;64.00;8.30;101575.00;;;;5050100;28;20199;-74
2024/01/07 00:06:29;;;;;;;9.50;7.70;;;6.50;64.10;8.40;101573.00;;;;5049950;28;20196;-74
2024/01/07 00:08:56;;;;;;;9.57;7.72;;;6.50;65.00;8.40;101582.00;;;;5032309;28;20196;-74
2024/01/07 00:11:24;;;;;;;9.20;7.40;;;6.50;64.40;8.30;101579.00;;;;5032656;28;20197;-73
2024/01/07 00:13:51;;;;;;;8.82;7.15;;;6.50;64.50;8.30;101580.00;;;;5031834;28;20629;-73
2024/01/07 00:16:18;;;;;;;11.18;8.10;;;6.50;64.50;8.30;101587.00;;;;5031794;28;20204;-74
2024/01/07 00:18:45;;;;;;;10.55;8.10;;;6.50;64.40;8.30;101595.00;;;;5024637;28;20212;-74
2024/01/07 00:21:14;;;;;;;11.55;8.63;;;6.50;64.50;8.30;101594.00;;;;5032099;28;20224;-74
2024/01/07 00:23:41;;;;;;;10.32;9.05;;;6.40;64.40;8.30;101601.00;;;;5031657;28;20205;-74
2024/01/07 00:26:09;;;;;;;11.10;8.45;;;6.40;64.50;8.20;101593.00;;;;5032421;28;20687;-74
2024/01/07 00:28:36;;;;;;;11.27;8.93;;;6.40;64.60;8.20;101597.00;;;;5031007;28;20207;-74
2024/01/07 00:31:03;;;;;;;10.93;7.85;;;6.40;64.60;8.20;101598.00;;;;5032240;28;20261;-74
2024/01/07 00:33:32;;;;;;;11.85;9.35;;;6.40;64.60;8.20;101599.00;;;;5031740;28;20197;-74
2024/01/07 00:35:59;;;;;;;10.68;8.43;;;6.40;64.60;8.20;101600.00;;;;5038936;28;20263;-73
2024/01/07 00:38:27;;;;;;;12.55;8.73;;;6.40;64.60;8.20;101605.00;;;;5036702;28;20200;-74
2024/01/07 00:40:54;;;;;;;11.88;8.73;;;6.30;64.70;8.20;101603.00;;;;5032010;28;20310;-74
2024/01/07 00:43:21;;;;;;;10.73;7.90;;;6.30;64.70;8.20;101608.00;;;;5031270;28;20654;-73
2024/01/07 00:45:49;;;;;;;12.88;8.88;;;6.30;64.70;8.20;101615.00;;;;5031605;28;20197;-74
2024/01/07 00:48:17;;;;;;;11.02;8.13;;;6.30;64.80;8.20;101613.00;;;;5031317;28;20215;-74
2024/01/07 00:50:44;;;;;;;9.63;7.15;;;6.30;64.80;8.20;101616.00;;;;5031451;28;20196;-74
2024/01/07 00:53:11;;;;;;;12.02;8.75;;;6.30;64.90;8.20;101616.00;;;;5032113;28;20255;-73
2024/01/07 00:55:39;;;;;;;12.52;7.90;;;6.30;64.90;8.10;101612.00;;;;5030994;28;21333;-73
2024/01/07 00:58:06;;;;;;;10.75;8.45;;;6.30;64.80;8.10;101617.00;;;;5031800;28;20200;-74
2024/01/07 01:00:33;;;;;;;11.85;8.57;;;6.30;64.80;8.10;101617.00;;;;5030770;28;20197;-73
2024/01/07 01:03:00;;;;;;;9.73;7.85;;;6.30;64.80;8.10;101622.00;;;;5031245;28;20684;-74
2024/01/07 01:05:27;;;;;;;10.77;8.55;;;6.30;64.90;8.10;101622.00;;;;5031408;28;20211;-73
2024/01/07 01:07:54;;;;;;;11.98;8.25;;;6.30;64.90;8.00;101625.00;;;;5030927;28;20279;-74
2024/01/07 01:10:22;;;;;;;12.43;8.57;;;6.20;64.80;8.00;101625.00;;;;5031902;28;20204;-74
2024/01/07 01:12:53;;;;;;;9.88;7.30;;;6.20;64.80;8.00;101628.00;;;;5031339;28;20192;-74
2024/01/07 01:15:21;;;;;;;11.40;8.35;;;6.20;64.80;8.00;101629.00;;;;5031479;28;20215;-73
2024/01/07 01:17:48;;;;;;;10.20;7.57;;;6.20;64.80;8.00;101632.00;;;;5031377;28;20220;-73
2024/01/07 01:20:15;;;;;;;9.32;7.88;;;6.20;64.90;8.00;101628.00;;;;5030682;28;20246;-74
2024/01/07 01:22:42;;;;;;;10.80;7.72;;;6.20;65.00;8.00;101634.00;;;;5031477;28;20215;-73
2024/01/07 01:25:10;;;;;;;8.68;6.93;;;6.20;65.00;8.00;101638.00;;;;5031209;28;20189;-74
2024/01/07 01:27:38;;;;;;;10.77;7.82;;;6.20;65.10;8.00;101638.00;;;;5043678;28;20249;-74
2024/01/07 01:30:08;;;;;;;10.20;8.07;;;6.20;65.10;8.00;101631.00;;;;5031984;28;20205;-74
2024/01/07 01:32:35;;;;;;;12.10;8.85;;;6.10;65.10;8.00;101638.00;;;;5030716;28;20192;-73
2024/01/07 01:35:02;;;;;;;13.32;8.43;;;6.20;65.40;8.00;101635.00;;;;5031005;28;20258;-73
2024/01/07 01:37:32;;;;;;;10.52;8.23;;;6.20;65.30;8.00;101642.00;;;;5030804;28;20204;-74
2024/01/07 01:39:59;;;;;;;10.82;8.35;;;6.20;65.30;8.00;101647.00;;;;5033635;28;20208;-74
2024/01/07 01:42:26;;;;;;;11.60;8.55;;;6.20;65.30;8.00;101654.00;;;;5034409;28;20216;-73
2024/01/07 01:44:56;;;;;;;11.52;8.30;;;6.20;65.30;8.00;101646.00;;;;5035540;28;20204;-73
2024/01/07 01:47:25;;;;;;;13.05;9.07;;;6.20;65.20;8.00;101659.00;;;;5034639;28;20211;-73
2024/01/07 01:49:52;;;;;;;12.88;8.93;;;6.20;65.30;8.00;101664.00;;;;5034666;28;20204;-73
2024/01/07 01:52:19;;;;;;;11.18;8.68;;;6.20;65.40;8.00;101666.00;;;;5034519;28;20200;-73
2024/01/07 01:54:47;;;;;;;13.05;9.90;;;6.20;65.50;8.10;101661.00;;;;5035282;28;20295;-73
2024/01/07 01:57:22;;;;;;;11.00;8.60;;;6.20;65.40;8.00;101676.00;;;;5034075;28;20592;-73
2024/01/07 01:59:49;;;;;;;11.98;8.32;;;6.20;65.50;8.10;101670.00;;;;5034360;28;20230;-74
2024/01/07 02:02:17;;;;;;;11.05;9.20;;;6.20;65.40;8.00;101683.00;;;;5035084;28;20633;-74
2024/01/07 02:04:45;;;;;;;12.02;8.88;;;6.20;65.30;8.00;101682.00;;;;5034673;28;20584;-73
2024/01/07 02:07:12;;;;;;;12.30;8.73;;;6.20;65.30;8.00;101679.00;;;;5034640;28;20192;-73
2024/01/07 02:09:40;;;;;;;11.02;8.43;;;6.20;65.40;8.00;101684.00;;;;5033972;28;20199;-74
2024/01/07 02:12:11;;;;;;;12.43;8.68;;;6.20;65.30;8.00;101680.00;;;;5034200;28;20688;-74
2024/01/07 02:14:39;;;;;;;13.65;9.45;;;6.20;65.30;8.00;101683.00;;;;5033857;28;20193;-74
2024/01/07 02:17:06;;;;;;;14.15;9.75;;;6.20;65.20;7.90;101691.00;;;;5034417;28;20205;-74
2024/01/07 02:19:33;;;;;;;14.05;10.23;;;6.20;65.20;7.90;101683.00;;;;5052430;28;20210;-75
2024/01/07 02:22:02;;;;;;;13.57;9.52;;;6.10;65.20;7.90;101690.00;;;;5033636;28;20227;-74
2024/01/07 02:24:32;;;;;;;12.25;9.25;;;6.10;65.90;7.90;101691.00;;;;5034266;28;20200;-74
2024/01/07 02:27:02;;;;;;;11.65;9.30;;;6.10;65.40;7.90;101691.00;;;;5034552;28;20246;-74
2024/01/07 02:29:29;;;;;;;15.30;9.52;;;6.10;65.40;7.90;101691.00;;;;5034054;28;20737;-74
2024/01/07 02:31:56;;;;;;;12.85;9.35;;;6.10;65.50;7.90;101692.00;;;;5034245;28;20189;-74
2024/01/07 02:34:23;;;;;;;13.63;9.80;;;6.10;65.50;7.90;101701.00;;;;5035669;28;20808;-74
2024/01/07 02:36:50;;;;;;;13.45;9.65;;;6.10;65.50;7.90;101700.00;;;;5033973;28;20238;-74
2024/01/07 02:39:17;;;;;;;14.52;9.68;;;6.10;65.40;7.80;101697.00;;;;5033988;28;20580;-74
2024/01/07 02:41:45;;;;;;;14.35;10.10;;;6.10;65.40;7.80;101705.00;;;;5033315;28;20234;-74
2024/01/07 02:44:12;;;;;;;14.02;10.43;;;6.00;65.50;7.80;101703.00;;;;5034279;28;20207;-74
2024/01/07 02:46:40;;;;;;;14.05;9.52;;;6.00;66.10;7.80;101705.00;;;;5033471;28;20188;-74
2024/01/07 02:49:07;;;;;;;13.90;9.90;;;6.00;65.40;7.80;101705.00;;;;5033583;28;20684;-74
2024/01/07 02:51:34;;;;;;;15.02;11.02;;;6.00;65.40;7.80;101704.00;;;;5036244;28;20199;-74
2024/01/07 02:54:01;;;;;;;14.00;9.65;;;6.00;65.40;7.80;101704.00;;;;5041465;28;20206;-74
2024/01/07 02:56:28;;;;;;;12.52;9.43;;;6.00;65.50;7.80;101705.00;;;;5046411;28;20579;-75
2024/01/07 02:58:56;;;;;;;15.43;11.27;;;6.00;65.50;7.80;101713.00;;;;5014380;28;20200;-74
2024/01/07 03:01:23;;;;;;;15.00;10.35;;;6.00;65.50;7.80;101712.00;;;;5023496;28;20250;-74
2024/01/07 03:03:51;;;;;;;13.82;9.98;;;6.00;65.60;7.80;101715.00;;;;5033718;28;20211;-74
2024/01/07 03:06:18;;;;;;;14.68;10.15;;;6.00;65.70;7.80;101709.00;;;;5033556;28;20227;-74
2024/01/07 03:08:45;;;;;;;14.98;11.15;;;6.00;65.60;7.80;101719.00;;;;5038039;28;20199;-74
2024/01/07 03:11:12;;;;;;;16.77;10.98;;;6.00;65.60;7.80;101721.00;;;;5053493;28;20212;-74
2024/01/07 03:13:41;;;;;;;16.23;11.27;;;6.00;65.60;7.80;101717.00;;;;5034883;28;20202;-74
2024/01/07 03:16:09;;;;;;;12.95;9.95;;;6.00;65.60;7.70;101726.00;;;;5033543;28;20200;-74
2024/01/07 03:18:36;;;;;;;18.77;11.77;;;6.00;65.60;7.70;101729.00;;;;5032969;28;20218;-74
2024/01/07 03:21:03;;;;;;;15.52;11.30;;;6.00;65.60;7.80;101733.00;;;;5032264;28;20197;-74
2024/01/07 03:23:30;;;;;;;15.70;11.20;;;6.00;65.70;7.80;101736.00;;;;5032429;28;20247;-74
2024/01/07 03:25:59;;;;;;;14.20;9.85;;;6.00;65.70;7.70;101742.00;;;;5039815;28;20669;-73
2024/01/07 03:28:26;;;;;;;16.45;11.25;;;5.90;65.60;7.80;101743.00;;;;5038297;28;20222;-74
2024/01/07 03:30:53;;;;;;;13.50;10.60;;;6.00;65.80;7.80;101741.00;;;;5032887;28;20283;-73
2024/01/07 03:33:21;;;;;;;14.18;11.50;;;6.00;65.70;7.70;101738.00;;;;5032891;28;20199;-73
2024/01/07 03:35:49;;;;;;;13.10;10.63;;;6.00;65.80;7.80;101740.00;;;;5032709;28;20779;-73
2024/01/07 03:38:16;;;;;;;15.90;11.27;;;6.00;65.70;7.80;101749.00;;;;5032553;28;20204;-73
2024/01/07 03:40:43;;;;;;;14.38;10.57;;;6.00;65.70;7.80;101744.00;;;;5032874;28;20216;-73
2024/01/07 03:43:10;;;;;;;15.95;11.23;;;6.00;65.70;7.80;101746.00;;;;5033074;28;20615;-73
2024/01/07 03:45:37;;;;;;;14.45;10.93;;;6.00;65.80;7.80;101737.00;;;;5032729;28;20196;-74
2024/01/07 03:48:04;;;;;;;14.70;10.65;;;6.00;65.80;7.80;101744.00;;;;5032692;28;20197;-73
2024/01/07 03:50:33;;;;;;;15.13;10.75;;;6.00;65.80;7.70;101743.00;;;;5032458;28;20244;-74
2024/01/07 03:53:00;;;;;;;15.85;10.43;;;6.00;65.70;7.80;101744.00;;;;5031658;28;20200;-73
2024/01/07 03:55:27;;;;;;;16.45;10.52;;;6.00;65.70;7.80;101754.00;;;;5037064;28;20196;-74
2024/01/07 03:57:54;;;;;;;15.23;10.93;;;6.00;66.40;7.80;101761.00;;;;5042633;28;20288;-74
2024/01/07 04:00:21;;;;;;;12.77;9.75;;;5.90;65.60;7.80;101766.00;;;;5038341;28;20196;-73
2024/01/07 04:02:48;;;;;;;14.65;10.70;;;6.00;65.80;7.80;101763.00;;;;5031411;28;20219;-74
2024/01/07 04:05:15;;;;;;;14.98;10.48;;;5.90;65.70;7.80;101762.00;;;;5032344;28;20291;-74
2024/01/07 04:07:43;;;;;;;14.85;11.02;;;6.00;65.90;7.80;101773.00;;;;5032526;28;20188;-74
2024/01/07 04:10:11;;;;;;;14.25;9.82;;;5.90;65.70;7.80;101772.00;;;;5031859;28;20193;-74
2024/01/07 04:12:38;;;;;;;14.52;10.75;;;5.90;65.80;7.80;101777.00;;;;5031736;28;20692;-74
2024/01/07 04:15:06;;;;;;;15.43;10.80;;;6.00;65.80;7.80;101779.00;;;;5032227;28;20203;-73
2024/01/07 04:17:33;;;;;;;13.25;9.63;;;6.00;65.80;7.80;101783.00;;;;5036085;28;20227;-74
2024/01/07 04:20:00;;;;;;;12.85;9.90;;;5.90;65.60;7.70;101789.00;;;;5032060;28;20196;-73
2024/01/07 04:22:27;;;;;;;14.80;10.15;;;5.90;65.60;7.70;101787.00;;;;5032050;28;20700;-73
2024/01/07 04:24:56;;;;;;;16.25;11.30;;;5.90;65.60;7.70;101785.00;;;;5032079;28;20208;-74
2024/01/07 04:27:24;;;;;;;14.38;10.05;;;5.90;65.60;7.70;101793.00;;;;5031709;28;20729;-73
2024/01/07 04:29:52;;;;;;;14.68;10.35;;;5.90;65.70;7.70;101796.00;;;;5020092;28;20280;-73
2024/01/07 04:32:19;;;;;;;14.82;10.70;;;5.90;65.70;7.70;101794.00;;;;5017175;28;20292;-74
2024/01/07 04:34:46;;;;;;;18.75;12.77;;;5.90;65.70;7.70;101794.00;;;;5014481;28;20212;-73
2024/01/07 04:37:13;;;;;;;14.65;10.23;;;5.90;65.70;7.70;101807.00;;;;5032081;28;20271;-73
2024/01/07 04:39:40;;;;;;;16.38;11.32;;;5.90;65.60;7.70;101796.00;;;;5031729;28;20199;-74
2024/01/07 04:42:09;;;;;;;14.55;10.50;;;5.90;65.60;7.60;101808.00;;;;5031702;28;20231;-74
2024/01/07 04:44:36;;;;;;;16.95;11.25;;;5.90;65.60;7.60;101806.00;;;;5031505;28;20200;-73
2024/01/07 04:47:03;;;;;;;18.05;11.55;;;5.80;65.70;7.60;101812.00;;;;5031518;28;20579;-74
2024/01/07 04:49:30;;;;;;;17.20;11.23;;;5.80;65.70;7.60;101820.00;;;;5032112;28;20204;-74
2024/01/07 04:51:57;;;;;;;15.77;11.05;;;5.90;65.70;7.60;101821.00;;;;5032154;28;20203;-74
2024/01/07 04:54:24;;;;;;;15.50;11.75;;;5.90;65.60;7.60;101823.00;;;;5031511;28;20635;-74
2024/01/07 04:56:51;;;;;;;17.88;11.77;;;5.80;65.50;7.60;101822.00;;;;5038018;28;20197;-74
2024/01/07 04:59:19;;;;;;;17.33;11.80;;;5.80;65.60;7.60;101830.00;;;;5031357;28;20207;-74
2024/01/07 05:01:46;;;;;;;15.05;11.48;;;5.80;65.60;7.70;101838.00;;;;5031375;28;20287;-74
2024/01/07 05:04:13;;;;;;;16.02;10.38;;;5.80;65.70;7.70;101838.00;;;;5031495;28;20246;-74
2024/01/07 05:06:41;;;;;;;16.92;11.43;;;5.80;65.60;7.70;101838.00;;;;5031503;28;20192;-74
2024/01/07 05:09:08;;;;;;;14.48;10.82;;;5.90;65.50;7.70;101844.00;;;;5014583;28;20215;-73
2024/01/07 05:11:41;;;;;;;17.17;11.07;;;5.90;65.30;7.60;101851.00;;;;5031290;28;20290;-73
2024/01/07 05:14:08;;;;;;;14.23;10.45;;;5.80;65.20;7.60;101855.00;;;;5032215;28;20295;-74
2024/01/07 05:16:36;;;;;;;15.20;10.48;;;5.80;65.20;7.60;101851.00;;;;5035713;28;20672;-74
2024/01/07 05:19:03;;;;;;;14.73;11.07;;;5.80;65.20;7.60;101855.00;;;;5034890;28;20212;-73
2024/01/07 05:21:30;;;;;;;14.50;11.05;;;5.80;65.20;7.60;101853.00;;;;5035843;28;20296;-74
2024/01/07 05:23:58;;;;;;;14.63;11.35;;;5.80;65.20;7.60;101860.00;;;;5034858;28;20231;-74
2024/01/07 05:26:25;;;;;;;14.85;10.98;;;5.80;65.20;7.60;101855.00;;;;5048598;28;20200;-73
2024/01/07 05:28:52;;;;;;;15.60;10.95;;;5.80;65.40;7.60;101865.00;;;;5034754;28;20202;-73
2024/01/07 05:31:19;;;;;;;12.70;9.48;;;5.80;66.10;7.60;101869.00;;;;5034911;28;20196;-74
2024/01/07 05:33:48;;;;;;;14.02;10.32;;;5.80;65.30;7.60;101864.00;;;;5034953;28;20276;-73
2024/01/07 05:36:15;;;;;;;15.85;10.45;;;5.80;65.30;7.60;101863.00;;;;5034868;28;20709;-73
2024/01/07 05:38:43;;;;;;;16.00;10.02;;;5.80;65.30;7.60;101870.00;;;;5035229;28;20196;-73
2024/01/07 05:41:10;;;;;;;14.35;10.32;;;5.80;65.20;7.60;101877.00;;;;5035449;28;20564;-73
2024/01/07 05:43:37;;;;;;;14.85;10.10;;;5.80;65.20;7.50;101876.00;;;;5038088;28;20228;-73
2024/01/07 05:46:04;;;;;;;12.82;10.18;;;5.80;65.10;7.60;101888.00;;;;5020824;28;20675;-74
2024/01/07 05:48:44;;;;;;;12.45;9.75;;;5.80;65.10;7.50;101887.00;;;;5032561;28;20232;-74
2024/01/07 05:51:13;;;;;;;13.52;9.52;;;5.70;65.00;7.50;101892.00;;;;5035283;28;20199;-73
2024/01/07 05:53:40;;;;;;;12.43;9.50;;;5.80;65.00;7.50;101900.00;;;;5034283;28;20200;-73
2024/01/07 05:56:08;;;;;;;11.45;8.98;;;5.80;65.00;7.50;101904.00;;;;5044985;28;20226;-74
2024/01/07 05:58:35;;;;;;;12.75;10.00;;;5.80;65.00;7.50;101893.00;;;;5038202;28;20297;-73
2024/01/07 06:01:03;;;;;;;13.82;10.20;;;5.70;64.90;7.50;101895.00;;;;5026661;28;20224;-73
2024/01/07 06:03:30;;;;;;;13.20;9.85;;;5.70;64.80;7.50;101911.00;;;;5034475;28;20223;-74
2024/01/07 06:05:59;;;;;;;13.68;9.90;;;5.70;64.80;7.50;101913.00;;;;5034733;28;20195;-74
2024/01/07 06:08:27;;;;;;;12.02;9.02;;;5.70;64.90;7.50;101912.00;;;;5034146;28;20215;-73
2024/01/07 06:10:54;;;;;;;13.27;8.52;;;5.70;65.00;7.60;101919.00;;;;5034770;28;20210;-73
2024/01/07 06:13:21;;;;;;;11.57;8.55;;;5.70;64.90;7.60;101916.00;;;;5033720;28;20204;-74
2024/01/07 06:15:48;;;;;;;10.77;8.35;;;5.70;65.60;7.60;101919.00;;;;5039616;28;20195;-74
2024/01/07 06:18:15;;;;;;;11.20;9.15;;;5.70;65.00;7.60;101925.00;;;;5044398;28;20584;-73
2024/01/07 06:20:42;;;;;;;10.60;8.95;;;5.80;65.00;7.60;101925.00;;;;5034368;28;20200;-73
2024/01/07 06:23:09;;;;;;;10.85;9.38;;;5.80;64.90;7.60;101930.00;;;;5034178;28;20224;-73
2024/01/07 06:25:39;;;;;;;12.93;8.90;;;5.80;64.90;7.60;101937.00;;;;5033425;28;20193;-74
2024/01/07 06:28:06;;;;;;;11.80;8.13;;;5.70;64.80;7.60;101942.00;;;;5034069;28;20596;-74
2024/01/07 06:30:33;;;;;;;11.82;8.65;;;5.80;64.80;7.60;101946.00;;;;5034187;28;20206;-73
2024/01/07 06:33:00;;;;;;;10.45;8.27;;;5.80;64.70;7.60;101964.00;;;;5034001;28;20692;-73
2024/01/07 06:35:27;;;;;;;10.75;8.65;;;5.80;64.70;7.60;101953.00;;;;5033265;28;20438;-74
2024/01/07 06:37:54;;;;;;;11.93;8.93;;;5.80;64.70;7.60;101955.00;;;;5033496;28;20204;-73
2024/01/07 06:40:22;;;;;;;11.68;9.05;;;5.80;64.80;7.60;101956.00;;;;5033975;28;20299;-73
2024/01/07 06:42:51;;;;;;;10.00;8.52;;;5.80;64.80;7.60;101960.00;;;;5012305;28;20224;-73
2024/01/07 06:45:18;;;;;;;12.68;9.32;;;5.80;64.70;7.60;101967.00;;;;5014501;28;20209;-74
2024/01/07 06:47:46;;;;;;;12.10;9.15;;;5.80;64.70;7.60;101955.00;;;;5026028;28;20612;-74
2024/01/07 06:50:13;;;;;;;11.88;9.05;;;5.80;64.60;7.60;101973.00;;;;5034665;28;20686;-73
2024/01/07 06:52:40;;;;;;;12.38;9.25;;;5.80;64.60;7.60;101975.00;;;;5033769;28;20207;-74
2024/01/07 06:55:08;;;;;;;13.90;9.80;;;5.80;64.60;7.60;101974.00;;;;5035805;28;20203;-74
2024/01/07 06:57:35;;;;;;;11.13;8.88;;;5.80;64.70;7.60;101985.00;;;;5044254;28;20558;-73
2024/01/07 07:00:05;;;;;;;10.68;9.07;;;5.80;64.60;7.60;101980.00;;;;5033288;28;20193;-73
2024/01/07 07:02:32;;;;;;;11.20;8.65;;;5.80;64.60;7.60;101992.00;;;;5033283;28;20196;-74
2024/01/07 07:04:59;;;;;;;9.82;8.73;;;5.80;64.60;7.60;101989.00;;;;5032842;28;20220;-74
2024/01/07 07:07:26;;;;;;;10.52;8.50;;;5.80;64.60;7.60;101992.00;;;;5036350;28;20246;-74
2024/01/07 07:09:53;;;;;;;13.65;8.27;;;5.80;64.60;7.60;102006.00;;;;5032118;28;20215;-73
2024/01/07 07:12:20;;;;;;;10.88;8.77;;;5.80;64.50;7.60;102005.00;;;;5036725;28;20192;-73
2024/01/07 07:14:48;;;;;;;9.65;7.85;;;5.80;64.50;7.60;102007.00;;;;5053188;28;20576;-73
2024/01/07 07:17:16;;;;;;;12.15;9.07;;;5.80;64.50;7.60;102011.00;;;;5041624;28;20302;-74
2024/01/07 07:19:44;;;;;;;12.93;9.10;;;5.80;65.10;7.60;102017.00;;;;5033056;28;20573;-74
2024/01/07 07:22:11;;;;;;;11.82;8.20;;;5.80;64.60;7.60;102015.00;;;;5033046;28;20565;-74
2024/01/07 07:24:42;;;;;;;9.80;8.32;;;5.80;64.40;7.50;102020.00;;;;5033746;28;20234;-73
2024/01/07 07:27:09;;;;;;;11.35;8.93;;;5.70;64.40;7.60;102030.00;;;;5029435;28;20196;-73
2024/01/07 07:29:36;;;;;;;11.77;8.77;;;5.80;64.40;7.60;102031.00;;;;5032996;28;20204;-73
2024/01/07 07:32:04;;;;;;;9.85;7.97;;;5.80;64.40;7.60;102027.00;;;;5032913;28;20197;-74
2024/01/07 07:34:34;;;;;;;9.15;8.13;;;5.80;64.40;7.50;102030.00;;;;5032634;28;20200;-74
2024/01/07 07:37:01;;;;;;;10.32;8.50;;;5.70;64.40;7.50;102033.00;;;;5031769;28;20220;-74
2024/01/07 07:39:28;;;;;;;10.75;8.02;;;5.70;64.40;7.50;102030.00;;;;5031571;28;20676;-74
2024/01/07 07:41:55;;;;;;;11.75;9.00;;;5.70;64.40;7.50;102036.00;;;;5028884;28;20192;-73
2024/01/07 07:44:22;;;;;;;13.65;9.40;;;5.70;64.40;7.60;102042.00;;;;5033138;28;20231;-73
2024/01/07 07:46:50;;;;;;;10.32;8.65;;;5.70;64.50;7.60;102052.00;;;;5032325;28;20685;-73
2024/01/07 07:49:17;;;;;;;11.50;8.80;;;5.80;65.20;7.60;102052.00;;;;5033107;28;20201;-73
2024/01/07 07:51:46;;;;;;;11.50;10.10;;;5.80;64.50;7.60;102066.00;;;;5031842;28;20203;-73
2024/01/07 07:54:13;;;;;;;10.43;8.82;;;5.80;64.30;7.50;102072.00;;;;5012863;28;20522;-73
2024/01/07 07:56:39;;;;;;;12.35;9.10;;;5.80;64.30;7.50;102076.00;;;;5039855;28;20192;-73
2024/01/07 07:59:06;;;;;;;11.88;9.00;;;5.80;64.10;7.50;102079.00;;;;5048684;28;20203;-73
2024/01/07 08:01:33;;;;;;;13.18;9.25;;;5.70;64.00;7.50;102079.00;;;;5041149;28;20574;-73
2024/01/07 08:04:01;;;;;;;11.25;9.77;;;5.70;64.10;7.50;102079.00;;;;5032353;28;20231;-73
2024/01/07 08:06:29;;;;;;;12.52;10.15;;;5.70;64.20;7.50;102087.00;;;;5031876;28;20669;-73
2024/01/07 08:08:57;;;;;;;12.05;9.35;;;5.70;64.10;7.40;102089.00;;;;5031951;28;20224;-72
2024/01/07 08:11:24;;;;;;;13.40;9.43;;;5.70;64.00;7.40;102100.00;;;;5032180;28;20203;-73
2024/01/07 08:13:51;;;;;;;11.35;9.63;;;5.70;64.00;7.40;102095.00;;;;5032027;28;20250;-73
2024/01/07 08:16:18;;;;;;;13.00;10.25;;;5.70;63.90;7.40;102109.00;;;;5032994;28;20258;-73
2024/01/07 08:18:45;;;;;;;13.43;9.35;;;5.60;64.00;7.30;102107.00;;;;5031925;28;20219;-73
2024/01/07 08:21:12;;;;;;;12.18;9.98;;;5.60;64.00;7.30;102112.00;;;;5032440;28;20668;-72
2024/01/07 08:23:39;;;;;;;12.02;9.35;;;5.60;64.00;7.30;102100.00;;;;5031821;28;20293;-73
2024/01/07 08:26:08;;;;;;;12.02;9.55;;;5.60;64.00;7.30;102113.00;;;;5032028;28;20192;-73
2024/01/07 08:28:35;;;;;;;12.68;10.48;;;5.50;63.90;7.30;102108.00;;;;5031630;28;20196;-73
2024/01/07 08:31:02;;;;;;;11.52;9.30;;;5.50;63.90;7.30;102114.00;;;;5031896;28;20218;-73
2024/01/07 08:33:32;;;;;;;10.43;8.90;;;5.50;63.90;7.30;102118.00;;;;5032046;28;20673;-73
2024/01/07 08:35:59;;;;;;;13.82;12.13;;;5.50;63.90;7.30;102117.00;;;;5032002;28;20298;-73
2024/01/07 08:38:27;;;;;;;11.35;10.10;;;5.50;64.00;7.30;102114.00;;;;5024434;28;20284;-74
2024/01/07 08:40:54;;;;;;;12.10;8.93;;;5.50;63.90;7.30;102117.00;;;;5012503;28;20200;-74
2024/01/07 08:43:22;;;;;;;11.77;8.02;;;5.50;63.80;7.30;102125.00;;;;5025485;28;20224;-74
2024/01/07 08:45:49;;;;;;;10.05;7.90;;;5.50;63.60;7.30;102131.00;;;;5031922;28;20202;-74
2024/01/07 08:48:16;;;;;;;9.10;6.97;;;5.50;63.70;7.30;102138.00;;;;5032611;28;20198;-74
2024/01/07 08:50:43;;;;;;;11.63;8.13;;;5.50;63.60;7.30;102148.00;;;;5035357;28;20196;-74
2024/01/07 08:53:10;;;;;;;10.23;7.95;;;5.50;63.80;7.20;102153.00;;;;5031928;28;20205;-74
2024/01/07 08:55:37;;;;;;;9.70;7.55;;;5.50;63.60;7.20;102151.00;;;;5037267;28;20187;-74
2024/01/07 08:58:06;;;;;;;9.27;7.68;;;5.50;63.60;7.20;102158.00;;;;5039588;28;20256;-74
2024/01/07 09:00:34;;;;;;;7.60;6.68;;;5.50;63.60;7.20;102161.00;;;;5031784;28;20208;-75
2024/01/07 09:03:01;;;;;;;9.63;7.57;;;5.40;63.50;7.20;102167.00;;;;5031445;28;20674;-74
2024/01/07 09:05:28;;;;;;;9.30;7.68;;;5.40;63.50;7.20;102172.00;;;;5032472;28;20237;-74
2024/01/07 09:07:55;;;;;;;8.23;7.10;;;5.50;63.60;7.20;102172.00;;;;5030798;28;20200;-73
2024/01/07 09:10:24;;;;;;;8.30;7.35;;;5.40;63.50;7.20;102177.00;;;;5030988;28;20196;-74
2024/01/07 09:12:53;;;;;;;8.02;6.95;;;5.40;63.50;7.20;102174.00;;;;5031528;28;20338;-74
2024/01/07 09:15:20;;;;;;;8.13;6.32;;;5.40;63.40;7.20;102177.00;;;;5030867;28;20701;-74
2024/01/07 09:17:49;;;;;;;9.20;8.20;;;5.40;63.40;7.20;102178.00;;;;5031053;28;20635;-73
2024/01/07 09:20:16;;;;;;;8.68;7.18;;;5.50;63.50;7.20;102182.00;;;;5031923;28;20568;-73
2024/01/07 09:22:44;;;;;;;8.38;7.10;;;5.50;63.50;7.30;102197.00;;;;5035554;28;20203;-73
2024/01/07 09:25:11;;;;;;;9.63;6.88;;;5.50;63.40;7.20;102191.00;;;;5051296;28;20223;-74
2024/01/07 09:27:39;;;;;;;10.32;6.82;;;5.50;63.30;7.30;102210.00;;;;5035544;28;20291;-73
2024/01/07 09:30:10;;;;;;;7.47;6.45;;;5.50;63.30;7.30;102215.00;;;;5030790;28;20211;-73
2024/01/07 09:32:37;;;;;;;9.52;7.57;;;5.50;63.20;7.30;102212.00;;;;5030814;28;20235;-73
2024/01/07 09:35:07;;;;;;;7.72;6.43;;;5.50;63.20;7.20;102211.00;;;;5031764;28;20242;-72
2024/01/07 09:37:35;;;;;;;8.88;7.15;;;5.40;63.00;7.30;102215.00;;;;5020739;28;20236;-73
2024/01/07 09:40:04;;;;;;;8.82;7.10;;;5.50;63.20;7.30;102227.00;;;;5030790;28;20209;-72
2024/01/07 09:42:31;;;;;;;8.70;6.80;;;5.50;63.20;7.30;102223.00;;;;5030948;28;20204;-73
2024/01/07 09:45:03;;;;;;;7.93;6.28;;;5.50;63.30;7.30;102225.00;;;;5030511;28;20228;-73
2024/01/07 09:47:31;;;;;;;9.27;7.13;;;5.50;63.20;7.30;102227.00;;;;5031146;28;20204;-73
2024/01/07 09:49:58;;;;;;;9.30;7.38;;;5.50;63.20;7.40;102227.00;;;;5031124;28;20664;-73
2024/01/07 09:52:27;;;;;;;8.90;6.53;;;5.50;63.30;7.40;102240.00;;;;5030523;28;20600;-73
2024/01/07 09:55:03;;;;;;;7.57;6.40;;;5.50;63.10;7.30;102246.00;;;;5031657;28;20204;-72
2024/01/07 09:57:31;;;;;;;7.72;6.68;;;5.60;63.20;7.40;102238.00;;;;5023791;28;20223;-73
2024/01/07 09:59:58;;;;;;;11.05;7.45;;;5.60;63.20;7.40;102237.00;;;;5031769;28;20684;-73
2024/01/07 10:02:25;;;;;;;8.00;6.82;;;5.60;63.10;7.30;102246.00;;;;5034621;28;20204;-74
2024/01/07 10:04:52;;;;;;;7.38;6.15;;;5.60;62.90;7.30;102246.00;;;;5034261;28;20309;-73
2024/01/07 10:07:19;;;;;;;10.15;7.18;;;5.60;62.80;7.30;102239.00;;;;5035114;28;20757;-73
2024/01/07 10:09:47;;;;;;;9.27;6.70;;;5.60;62.80;7.30;102245.00;;;;5033593;28;20188;-72
2024/01/07 10:12:15;;;;;;;9.80;6.85;;;5.60;62.90;7.30;102249.00;;;;5034760;28;20204;-73
2024/01/07 10:14:42;;;;;;;8.32;6.22;;;5.50;62.90;7.40;102253.00;;;;5035128;28;20302;-72
2024/01/07 10:17:17;;;;;;;8.05;6.78;;;5.60;62.90;7.30;102255.00;;;;5034008;28;20204;-73
2024/01/07 10:19:46;;;;;;;7.95;6.32;;;5.60;62.90;7.40;102254.00;;;;5034645;28;20207;-73
2024/01/07 10:22:15;;;;;;;10.55;6.28;;;5.60;62.70;7.40;102259.00;;;;5029699;28;20741;-73
2024/01/07 10:24:44;;;;;;;7.82;6.28;;;5.60;62.70;7.40;102264.00;;;;5015040;28;20275;-72
2024/01/07 10:27:13;;;;;;;6.70;5.55;;;5.60;62.50;7.40;102255.00;;;;5018678;28;20196;-73
2024/01/07 10:29:40;;;;;;;8.75;5.43;;;5.60;62.50;7.40;102268.00;;;;5033856;28;20565;-73
2024/01/07 10:32:07;;;;;;;7.18;5.40;;;5.60;62.50;7.40;102273.00;;;;5034877;28;20576;-73
2024/01/07 10:34:38;;;;;;;7.05;5.00;;;5.60;62.50;7.40;102275.00;;;;5033441;28;20204;-73
2024/01/07 10:37:06;;;;;;;7.28;4.85;;;5.60;62.50;7.50;102281.00;;;;5034448;28;20250;-73
2024/01/07 10:39:33;;;;;;;7.05;5.10;;;5.70;62.60;7.50;102283.00;;;;5034070;28;20270;-73
2024/01/07 10:42:02;;;;;;;6.18;5.25;;;5.70;62.50;7.60;102291.00;;;;5033758;28;20204;-72
2024/01/07 10:44:32;;;;;;;5.20;4.57;;;5.70;62.70;7.60;102295.00;;;;5033946;28;20228;-73
2024/01/07 10:47:00;;;;;;;8.05;5.05;;;5.70;62.40;7.50;102295.00;;;;5033673;28;20207;-73
2024/01/07 10:49:29;;;;;;;5.90;4.75;;;5.70;62.10;7.50;102298.00;;;;5034697;28;20200;-73
2024/01/07 10:52:05;;;;;;;5.03;4.22;;;5.70;61.90;7.40;102295.00;;;;5033984;28;20576;-73
2024/01/07 10:54:34;;;;;;;5.68;5.00;;;5.70;61.70;7.40;102302.00;;;;5033844;28;20207;-73
2024/01/07 10:57:13;;;;;;;5.38;4.25;;;5.70;61.70;7.40;102302.00;;;;5048058;28;20202;-73